Terminal Aerodrome Forecast
Issued by NWS Paducah, KY

Home | Current Version | Previous Version | Text Only | Print | Product List | Glossary On
Versions: 1 2 3 4 5 6 7 8 9 10 11 12 13 14
797
FTUS43 KPAH 061720
TAFPAH
TAF
KPAH 061720Z 0618/0718 34007KT P6SM FEW040
     FM070200 23004KT P6SM FEW250
     FM071400 26008KT P6SM SCT250=

USA.gov is the U.S. government's official web portal to all federal, state and local government web resources and services.